Cincinnati, OH (45201)

5:51 PM EDT on August 27, 2015 (GMT -0400)
Newport Aquarium | | Change Station
CLOSE
Current Station
Personal Weather Station
Location: Newport, KY
Elevation: 499 ft
Nearby Weather Stations

Elev 499 ft 39.09 °N, 84.50 °W | Updated 52 seconds ago

Mostly Cloudy
Mostly Cloudy
77.6 °F
Feels Like 78 °F
N
0.0
Wind Variable Wind from WNW
Gusts 3.0 mph

Today
High -- | Low -- °F
--% Chance of Precip.
Yesterday
High -- | Low -- °F
Precip. -- in
7:01 AM 8:16 PM
Waxing Gibbous, 95% visible
Pressure 30.14 in
Visibility 10.0 miles
Clouds Mostly Cloudy 5500 ft
Heat Index 78 °F
Dew Point 51 °F
Humidity 39%
Rainfall in
Snow Depth Not available.
UV 3 out of 12
Pollen 10.30 out of 12
Air Quality Not available.
Flu Activity Not available.
METAR KLUK 272053Z 06004KT 10SM BKN055 24/14 A3014 RMK AO2 SLP205 T02390139 55007
Pressure 30.14 in
Visibility 10.0 miles
Clouds Mostly Cloudy 5500 ft
Heat Index 78 °F
Dew Point 51 °F
Humidity 39%
Rainfall in
Snow Depth Not available.
UV 3 out of 12
Pollen 10.30 out of 12
Air Quality Not available.
Flu Activity Not available.
METAR KLUK 272053Z 06004KT 10SM BKN055 24/14 A3014 RMK AO2 SLP205 T02390139 55007

10-Day Weather Forecast

×

Almanac

Astronomy

Aug. 27, 2015 Rise Set
Actual Time
Civil Twilight
Nautical Twilight
Astronomical Twilight
Moon
Length of Visible Light
Length of Day
Tomorrow will be .
, % of the Moon is Illuminated

Today's Extremes

State Highs State Lows

Community

WunderPhotos

Upload Photos

1,850,238 photos uploaded!

WunderBlogs® & News

Nearby

Air Quality

  Air Quality AQ Index Pollutant
Not available.

Snow Depth

Station Depth Elevation

Earthquake Activity

City Distance Mag. Time & Date
Minimum magnitude displayed is 2.5.

Coastal Water Temperatures

Place Temperature

Stations

Nearby Weather Stations

Station Location Temp. Windchill Dew Point Humidity Wind Precip. Elev Updated Type